TimeCDT,TemperatureF,Dew PointF,Humidity,Sea Level PressureIn,VisibilityMPH,Wind Direction,Wind SpeedMPH,Gust SpeedMPH,PrecipitationIn,Events,Conditions,WindDirDegrees,DateUTC
12:13 AM,46.4,44.6,93,29.92,10.0,South,3.5,-,N/A,,Clear,170,2013-09-29 05:13:00
12:33 AM,46.4,42.8,87,29.92,10.0,South,3.5,-,N/A,,Clear,180,2013-09-29 05:33:00
12:54 AM,46.4,44.6,93,29.92,10.0,South,3.5,-,N/A,,Clear,170,2013-09-29 05:54:00
1:13 AM,46.4,44.6,93,29.92,10.0,South,3.5,-,N/A,,Clear,180,2013-09-29 06:13:00
1:33 AM,46.4,44.6,93,29.92,10.0,Calm,Calm,-,N/A,,Clear,0,2013-09-29 06:33:00
1:54 AM,46.4,42.8,87,29.92,10.0,South,3.5,-,N/A,,Clear,180,2013-09-29 06:54:00
2:13 AM,48.2,42.8,82,29.92,10.0,South,4.6,-,N/A,,Clear,170,2013-09-29 07:13:00
2:33 AM,48.2,42.8,82,29.92,10.0,South,4.6,-,N/A,,Clear,180,2013-09-29 07:33:00
2:53 AM,48.2,42.8,82,29.92,10.0,South,4.6,-,N/A,,Clear,180,2013-09-29 07:53:00
3:13 AM,46.4,42.8,87,29.92,10.0,South,4.6,-,N/A,,Clear,190,2013-09-29 08:13:00
3:33 AM,46.4,42.8,87,29.92,10.0,South,4.6,-,N/A,,Clear,180,2013-09-29 08:33:00
3:53 AM,46.4,42.8,87,29.92,10.0,South,3.5,-,N/A,,Clear,180,2013-09-29 08:53:00
4:13 AM,46.4,42.8,87,29.92,10.0,South,3.5,-,N/A,,Clear,180,2013-09-29 09:13:00
4:34 AM,44.6,42.8,93,29.92,10.0,Calm,Calm,-,N/A,,Clear,0,2013-09-29 09:34:00
4:53 AM,44.6,42.8,93,29.92,10.0,South,3.5,-,N/A,,Clear,190,2013-09-29 09:53:00
5:14 AM,44.6,42.8,93,29.93,10.0,Calm,Calm,-,N/A,,Clear,0,2013-09-29 10:14:00
5:33 AM,44.6,42.8,93,29.92,10.0,Calm,Calm,-,N/A,,Clear,0,2013-09-29 10:33:00
5:53 AM,42.8,41.0,93,29.92,10.0,Calm,Calm,-,N/A,,Clear,0,2013-09-29 10:53:00
6:13 AM,42.8,41.0,93,29.93,10.0,Calm,Calm,-,N/A,,Clear,0,2013-09-29 11:13:00
6:33 AM,42.8,41.0,93,29.93,10.0,Calm,Calm,-,N/A,,Clear,0,2013-09-29 11:33:00
6:53 AM,42.8,41.0,93,29.93,10.0,Calm,Calm,-,N/A,,Clear,0,2013-09-29 11:53:00
7:13 AM,42.8,41.0,93,29.93,10.0,Calm,Calm,-,N/A,,Clear,0,2013-09-29 12:13:00
7:33 AM,42.8,41.0,93,29.94,10.0,Calm,Calm,-,N/A,,Clear,0,2013-09-29 12:33:00
7:53 AM,44.6,42.8,93,29.94,10.0,Calm,Calm,-,N/A,,Clear,0,2013-09-29 12:53:00
8:13 AM,46.4,44.6,93,29.93,10.0,SSE,3.5,-,N/A,,Clear,160,2013-09-29 13:13:00
8:33 AM,48.2,44.6,87,29.93,10.0,South,4.6,-,N/A,,Clear,190,2013-09-29 13:33:00
8:53 AM,51.8,44.6,76,29.93,10.0,South,5.8,-,N/A,,Clear,180,2013-09-29 13:53:00
9:13 AM,51.8,44.6,76,29.93,10.0,South,3.5,-,N/A,,Clear,180,2013-09-29 14:13:00
9:33 AM,53.6,46.4,77,29.93,10.0,SSE,3.5,-,N/A,,Clear,160,2013-09-29 14:33:00
9:53 AM,57.2,46.4,67,29.94,10.0,South,5.8,-,N/A,,Clear,170,2013-09-29 14:53:00
10:13 AM,57.2,46.4,67,29.93,10.0,South,3.5,-,N/A,,Clear,180,2013-09-29 15:13:00
10:33 AM,60.8,48.2,63,29.93,10.0,SSE,5.8,-,N/A,,Clear,150,2013-09-29 15:33:00
10:53 AM,60.8,48.2,63,29.93,10.0,SSE,4.6,-,N/A,,Clear,150,2013-09-29 15:53:00
11:13 AM,62.6,48.2,59,29.92,10.0,SSE,5.8,-,N/A,,Clear,160,2013-09-29 16:13:00
11:33 AM,64.4,48.2,56,29.92,10.0,SSE,5.8,-,N/A,,Clear,150,2013-09-29 16:33:00
11:53 AM,66.2,48.2,52,29.91,10.0,SE,5.8,-,N/A,,Clear,140,2013-09-29 16:53:00
12:12 PM,68.0,48.2,49,29.91,10.0,SE,8.1,-,N/A,,Clear,140,2013-09-29 17:12:00
12:33 PM,69.8,48.2,46,29.90,10.0,SSE,9.2,-,N/A,,Clear,150,2013-09-29 17:33:00
12:53 PM,69.8,48.2,46,29.89,10.0,SE,11.5,-,N/A,,Clear,140,2013-09-29 17:53:00
1:12 PM,71.6,48.2,43,29.89,10.0,SSE,9.2,-,N/A,,Clear,160,2013-09-29 18:12:00
1:33 PM,71.6,46.4,41,29.88,10.0,SSE,9.2,-,N/A,,Clear,160,2013-09-29 18:33:00
1:53 PM,73.4,46.4,38,29.86,10.0,SE,8.1,18.4,N/A,,Clear,140,2013-09-29 18:53:00
2:12 PM,73.4,46.4,38,29.85,10.0,SSE,10.4,16.1,N/A,,Clear,160,2013-09-29 19:12:00
2:33 PM,73.4,44.6,36,29.85,10.0,SE,10.4,-,N/A,,Clear,140,2013-09-29 19:33:00
2:53 PM,75.2,44.6,34,29.84,10.0,SSE,12.7,18.4,N/A,,Clear,150,2013-09-29 19:53:00
3:12 PM,75.2,44.6,34,29.84,10.0,SSE,12.7,-,N/A,,Clear,160,2013-09-29 20:12:00
3:33 PM,75.2,46.4,36,29.83,10.0,SSE,8.1,-,N/A,,Clear,160,2013-09-29 20:33:00
3:53 PM,75.2,46.4,36,29.82,10.0,SSE,12.7,17.3,N/A,,Clear,160,2013-09-29 20:53:00
4:13 PM,75.2,44.6,34,29.82,10.0,SSE,13.8,19.6,N/A,,Clear,160,2013-09-29 21:13:00
4:33 PM,75.2,46.4,36,29.81,10.0,SSE,11.5,-,N/A,,Clear,150,2013-09-29 21:33:00
4:53 PM,75.2,44.6,34,29.80,10.0,SE,11.5,-,N/A,,Clear,140,2013-09-29 21:53:00
5:13 PM,75.2,44.6,34,29.79,10.0,SE,11.5,16.1,N/A,,Clear,140,2013-09-29 22:13:00
5:33 PM,75.2,44.6,34,29.78,10.0,SE,9.2,19.6,N/A,,Clear,130,2013-09-29 22:33:00
5:53 PM,73.4,46.4,38,29.78,10.0,SE,10.4,-,N/A,,Clear,130,2013-09-29 22:53:00
6:13 PM,73.4,46.4,38,29.78,10.0,SE,9.2,-,N/A,,Clear,140,2013-09-29 23:13:00
6:33 PM,71.6,44.6,38,29.78,10.0,SE,10.4,-,N/A,,Clear,130,2013-09-29 23:33:00
6:53 PM,69.8,46.4,43,29.78,10.0,SE,6.9,-,N/A,,Clear,130,2013-09-29 23:53:00
7:13 PM,68.0,46.4,46,29.78,10.0,SE,6.9,-,N/A,,Clear,130,2013-09-30 00:13:00
7:33 PM,66.2,46.4,49,29.78,10.0,ESE,8.1,-,N/A,,Clear,120,2013-09-30 00:33:00
7:53 PM,66.2,46.4,49,29.78,10.0,ESE,6.9,-,N/A,,Clear,120,2013-09-30 00:53:00
8:13 PM,66.2,46.4,49,29.78,10.0,SE,8.1,-,N/A,,Clear,130,2013-09-30 01:13:00
8:33 PM,64.4,46.4,52,29.78,10.0,SE,8.1,-,N/A,,Clear,130,2013-09-30 01:33:00
8:53 PM,64.4,46.4,52,29.78,10.0,SE,9.2,-,N/A,,Clear,130,2013-09-30 01:53:00
9:13 PM,64.4,44.6,49,29.78,10.0,SE,8.1,-,N/A,,Clear,140,2013-09-30 02:13:00
9:33 PM,64.4,44.6,49,29.78,10.0,SE,9.2,-,N/A,,Clear,140,2013-09-30 02:33:00
9:53 PM,64.4,44.6,49,29.78,10.0,SSE,10.4,-,N/A,,Clear,150,2013-09-30 02:53:00
10:13 PM,64.4,44.6,49,29.78,10.0,SSE,12.7,-,N/A,,Clear,150,2013-09-30 03:13:00
10:33 PM,66.2,44.6,46,29.77,10.0,SSE,12.7,19.6,N/A,,Clear,150,2013-09-30 03:33:00
10:53 PM,66.2,44.6,46,29.76,10.0,SSE,13.8,-,N/A,,Clear,150,2013-09-30 03:53:00
11:13 PM,66.2,44.6,46,29.76,10.0,SSE,13.8,-,N/A,,Clear,160,2013-09-30 04:13:00
11:33 PM,66.2,44.6,46,29.76,10.0,SSE,11.5,17.3,N/A,,Clear,160,2013-09-30 04:33:00
11:53 PM,64.4,44.6,49,29.76,10.0,South,12.7,-,N/A,,Clear,170,2013-09-30 04:53:00